Time;durP1;ratioP1;P1;durP2;ratioP2;P2;SDS_P1;SDS_P2;PMS_P1;PMS_P2;Temp;Humidity;BMP_temperature;BMP_pressure;BME280_temperature;BME280_humidity;BME280_pressure;Samples;Min_cycle;Max_cycle;Signal;HPM_P1;HPM_P2
2021/12/06 00:01:29;;;;;;;74.15;25.48;;;3.00;99.90;;;;;;5117640;27;20481;-75
2021/12/06 00:04:09;;;;;;;79.25;25.50;;;2.90;99.90;;;;;;5121500;27;20099;-74
2021/12/06 00:06:38;;;;;;;87.55;27.27;;;2.90;99.90;;;;;;5114134;27;20055;-73
2021/12/06 00:09:06;;;;;;;82.47;26.30;;;2.90;99.90;;;;;;5132763;27;20566;-75
2021/12/06 00:11:34;;;;;;;80.57;25.23;;;2.80;99.90;;;;;;5124365;27;20031;-74
2021/12/06 00:14:01;;;;;;;81.50;26.20;;;2.80;99.90;;;;;;5116374;27;20121;-74
2021/12/06 00:16:27;;;;;;;82.82;27.63;;;2.80;99.90;;;;;;5121529;27;20042;-74
2021/12/06 00:18:53;;;;;;;84.15;26.40;;;2.80;99.90;;;;;;5119312;27;20521;-75
2021/12/06 00:21:20;;;;;;;74.70;27.08;;;2.80;99.90;;;;;;5118662;27;20120;-74
2021/12/06 00:23:45;;;;;;;79.40;25.50;;;2.80;99.90;;;;;;5124063;27;20431;-74
2021/12/06 00:26:11;;;;;;;84.05;28.95;;;2.90;99.90;;;;;;5096966;27;20046;-74
2021/12/06 00:28:43;;;;;;;75.75;26.02;;;2.80;99.90;;;;;;5095866;27;20140;-74
2021/12/06 00:31:10;;;;;;;69.80;25.20;;;2.80;99.90;;;;;;5113139;27;20035;-75
2021/12/06 00:33:36;;;;;;;72.95;26.15;;;2.80;99.90;;;;;;5111976;27;20294;-74
2021/12/06 00:36:07;;;;;;;70.57;23.95;;;2.70;99.90;;;;;;5112086;27;20127;-75
2021/12/06 00:38:35;;;;;;;70.55;24.60;;;2.70;99.90;;;;;;5112873;27;20039;-74
2021/12/06 00:41:03;;;;;;;71.03;25.25;;;2.70;99.90;;;;;;5113046;27;20035;-74
2021/12/06 00:43:28;;;;;;;81.63;28.40;;;2.70;99.90;;;;;;5112148;27;20118;-74
2021/12/06 00:45:54;;;;;;;78.10;28.27;;;2.70;99.90;;;;;;5115051;27;20162;-74
2021/12/06 00:48:20;;;;;;;82.53;28.30;;;2.60;99.90;;;;;;5112335;27;20119;-74
2021/12/06 00:50:45;;;;;;;72.38;26.50;;;2.60;99.90;;;;;;5095312;27;20397;-74
2021/12/06 00:53:12;;;;;;;75.35;26.77;;;2.60;99.90;;;;;;5112100;27;20135;-75
2021/12/06 00:55:38;;;;;;;80.50;26.90;;;2.60;99.90;;;;;;5112324;27;20072;-74
2021/12/06 00:58:05;;;;;;;77.45;26.35;;;2.60;99.90;;;;;;5112010;27;20055;-75
2021/12/06 01:00:42;;;;;;;83.43;27.08;;;2.60;99.90;;;;;;5108911;27;20036;-74
2021/12/06 01:03:13;;;;;;;79.72;26.00;;;2.60;99.90;;;;;;5114190;27;20486;-75
2021/12/06 01:05:38;;;;;;;76.90;26.00;;;2.60;99.90;;;;;;5111523;27;20138;-75
2021/12/06 01:08:04;;;;;;;75.43;25.17;;;2.50;99.90;;;;;;5112168;27;20121;-75
2021/12/06 01:10:31;;;;;;;83.18;27.08;;;2.50;99.90;;;;;;5111503;27;20088;-75
2021/12/06 01:12:58;;;;;;;77.03;26.10;;;2.50;99.90;;;;;;5095464;27;20415;-75
2021/12/06 01:15:25;;;;;;;78.60;26.70;;;2.60;99.90;;;;;;5111603;27;20078;-75
2021/12/06 01:17:51;;;;;;;81.88;26.58;;;2.60;99.90;;;;;;5108901;27;20381;-75
2021/12/06 01:20:21;;;;;;;82.25;27.55;;;2.50;99.90;;;;;;5111616;27;20038;-75
2021/12/06 01:22:53;;;;;;;82.50;26.38;;;2.50;99.90;;;;;;5112902;27;20038;-74
2021/12/06 01:26:16;;;;;;;81.45;27.65;;;2.50;99.90;;;;;;5111507;27;20431;-74
2021/12/06 01:31:10;;;;;;;82.28;27.70;;;2.50;99.90;;;;;;5111262;27;20493;-74
2021/12/06 01:34:06;;;;;;;78.93;26.48;;;2.50;99.90;;;;;;5112119;27;20083;-73
2021/12/06 01:39:17;;;;;;;82.75;28.23;;;2.50;99.90;;;;;;5110764;27;20058;-74
2021/12/06 01:41:51;;;;;;;95.55;28.95;;;2.50;99.90;;;;;;5113105;27;20031;-74
2021/12/06 01:44:40;;;;;;;100.13;30.60;;;2.50;99.90;;;;;;5109405;27;20046;-74
2021/12/06 01:47:16;;;;;;;109.97;31.30;;;2.50;99.90;;;;;;5109835;27;20039;-74
2021/12/06 01:49:45;;;;;;;111.72;33.28;;;2.50;99.90;;;;;;5110861;27;20224;-74
2021/12/06 01:52:15;;;;;;;106.47;31.38;;;2.50;99.90;;;;;;5110879;27;20027;-74
2021/12/06 01:54:41;;;;;;;111.28;33.58;;;2.40;99.90;;;;;;5110905;27;20405;-74
2021/12/06 01:57:08;;;;;;;111.50;32.35;;;2.50;99.90;;;;;;5108632;27;20039;-74
2021/12/06 01:59:34;;;;;;;108.90;32.08;;;2.40;99.90;;;;;;5110579;27;20042;-75
2021/12/06 02:01:59;;;;;;;110.13;30.98;;;2.40;99.90;;;;;;5111015;27;20043;-75
2021/12/06 02:04:28;;;;;;;109.18;32.05;;;2.40;99.90;;;;;;5111128;27;20031;-74
2021/12/06 02:06:54;;;;;;;107.72;30.58;;;2.40;99.90;;;;;;5110454;28;20035;-74
2021/12/06 02:09:21;;;;;;;114.90;31.52;;;2.40;99.90;;;;;;5110774;27;20518;-74
2021/12/06 02:11:47;;;;;;;100.55;28.73;;;2.40;99.90;;;;;;5111324;27;20516;-73
2021/12/06 02:14:37;;;;;;;102.25;30.58;;;2.40;99.90;;;;;;5094139;27;20052;-73
2021/12/06 02:17:21;;;;;;;109.25;31.20;;;2.40;99.90;;;;;;5110533;28;20074;-74
2021/12/06 02:19:50;;;;;;;104.78;30.42;;;2.40;99.90;;;;;;5110337;28;20542;-73
2021/12/06 02:22:22;;;;;;;111.68;30.65;;;2.40;99.90;;;;;;5110575;28;20039;-74
2021/12/06 02:24:49;;;;;;;110.50;30.77;;;2.40;99.90;;;;;;5110550;28;20465;-73
2021/12/06 02:27:16;;;;;;;112.35;31.08;;;2.40;99.90;;;;;;5122629;28;20427;-74
2021/12/06 02:29:45;;;;;;;116.07;31.48;;;2.40;99.90;;;;;;5111245;27;20046;-73
2021/12/06 02:32:13;;;;;;;109.80;31.52;;;2.40;99.90;;;;;;5115973;27;20031;-74
2021/12/06 02:34:41;;;;;;;109.93;30.45;;;2.40;99.90;;;;;;5114560;27;20142;-73
2021/12/06 02:37:09;;;;;;;104.13;30.67;;;2.40;99.90;;;;;;5114919;27;20046;-74
2021/12/06 02:39:36;;;;;;;111.40;32.35;;;2.40;99.90;;;;;;5112978;27;20492;-74
2021/12/06 02:42:03;;;;;;;104.30;29.83;;;2.40;99.90;;;;;;5114412;27;20042;-74
2021/12/06 02:44:29;;;;;;;103.28;31.05;;;2.40;99.90;;;;;;5132294;27;20117;-73
2021/12/06 02:46:55;;;;;;;110.97;30.73;;;2.50;99.90;;;;;;5114987;27;20129;-73
2021/12/06 02:49:21;;;;;;;105.32;30.73;;;2.50;99.90;;;;;;5115646;27;20039;-73
2021/12/06 02:51:46;;;;;;;114.75;31.30;;;2.50;99.90;;;;;;5115167;27;20505;-73
2021/12/06 02:54:13;;;;;;;125.38;32.40;;;2.50;99.90;;;;;;5115802;27;20493;-74
2021/12/06 02:59:16;;;;;;;112.20;31.13;;;2.50;99.90;;;;;;5115064;27;20039;-74
2021/12/06 03:01:45;;;;;;;102.65;30.45;;;2.50;99.90;;;;;;5115134;27;20058;-73
2021/12/06 03:04:11;;;;;;;107.43;31.42;;;2.50;99.90;;;;;;5115276;27;20223;-74
2021/12/06 03:06:40;;;;;;;98.50;29.77;;;2.50;99.90;;;;;;5115324;27;20470;-74
2021/12/06 03:09:16;;;;;;;100.45;29.25;;;2.50;99.90;;;;;;5114921;27;20516;-73
2021/12/06 03:11:49;;;;;;;102.95;30.02;;;2.50;99.90;;;;;;5113107;27;20035;-73
2021/12/06 03:14:20;;;;;;;109.70;30.17;;;2.50;99.90;;;;;;5114602;27;20074;-74
2021/12/06 03:16:46;;;;;;;112.78;31.92;;;2.50;99.90;;;;;;5113975;27;20058;-73
2021/12/06 03:19:12;;;;;;;120.30;31.65;;;2.50;99.90;;;;;;5114168;27;20039;-73
2021/12/06 03:21:37;;;;;;;114.53;30.73;;;2.50;99.90;;;;;;5114287;27;20046;-74
2021/12/06 03:24:03;;;;;;;113.95;32.85;;;2.50;99.90;;;;;;5114072;27;20072;-74
2021/12/06 03:26:29;;;;;;;92.95;29.20;;;2.50;99.90;;;;;;5114271;27;20461;-74
2021/12/06 03:28:55;;;;;;;107.00;29.88;;;2.50;99.90;;;;;;5114330;27;20038;-73
2021/12/06 03:31:25;;;;;;;102.18;29.73;;;2.50;99.90;;;;;;5113990;27;20369;-73
2021/12/06 03:33:54;;;;;;;100.65;29.15;;;2.50;99.90;;;;;;5113816;27;20054;-74
2021/12/06 03:36:23;;;;;;;102.50;29.98;;;2.50;99.90;;;;;;5111413;27;20046;-74
2021/12/06 03:38:49;;;;;;;100.53;28.73;;;2.50;99.90;;;;;;5113955;27;20043;-74
2021/12/06 03:41:16;;;;;;;108.25;29.30;;;2.50;99.90;;;;;;5112439;28;20046;-74
2021/12/06 03:43:43;;;;;;;100.72;29.52;;;2.50;99.90;;;;;;5113427;27;20042;-73
2021/12/06 03:46:11;;;;;;;108.75;28.90;;;2.50;99.90;;;;;;5113801;27;20047;-73
2021/12/06 03:48:37;;;;;;;96.80;28.25;;;2.50;99.90;;;;;;5114565;27;20550;-73
2021/12/06 03:51:02;;;;;;;95.75;27.27;;;2.50;99.90;;;;;;5112852;27;20133;-73
2021/12/06 03:53:29;;;;;;;99.40;29.95;;;2.50;99.90;;;;;;5114184;27;20505;-74
2021/12/06 03:55:56;;;;;;;90.22;27.02;;;2.60;99.90;;;;;;5111394;27;20482;-74
2021/12/06 03:58:22;;;;;;;90.05;27.20;;;2.50;99.90;;;;;;5113827;27;20063;-73
2021/12/06 04:00:48;;;;;;;92.72;26.65;;;2.60;99.90;;;;;;5112594;27;20046;-74
2021/12/06 04:03:16;;;;;;;104.90;28.67;;;2.60;99.90;;;;;;5113673;27;20030;-72
2021/12/06 04:05:42;;;;;;;102.97;29.23;;;2.60;99.90;;;;;;5112968;27;20039;-73
2021/12/06 04:08:07;;;;;;;96.03;28.45;;;2.60;99.90;;;;;;5113336;27;20042;-72
2021/12/06 04:10:33;;;;;;;99.20;27.98;;;2.60;99.90;;;;;;5113284;27;20058;-74
2021/12/06 04:12:59;;;;;;;104.25;30.00;;;2.60;99.90;;;;;;5113494;27;20066;-74
2021/12/06 04:15:29;;;;;;;96.72;29.45;;;2.60;99.90;;;;;;5114049;27;20065;-73
2021/12/06 04:17:55;;;;;;;100.38;28.33;;;2.60;99.90;;;;;;5096251;27;20046;-73
2021/12/06 04:20:20;;;;;;;106.03;29.40;;;2.60;99.90;;;;;;5112894;27;20491;-73
2021/12/06 04:22:46;;;;;;;97.78;28.02;;;2.60;99.90;;;;;;5113558;27;20031;-73
2021/12/06 04:25:14;;;;;;;117.07;29.85;;;2.60;99.90;;;;;;5113780;27;20481;-74
2021/12/06 04:27:42;;;;;;;109.28;29.52;;;2.60;99.90;;;;;;5094956;27;20087;-74
2021/12/06 04:30:10;;;;;;;107.97;28.73;;;2.60;99.90;;;;;;5113857;27;20035;-73
2021/12/06 04:32:35;;;;;;;110.63;29.75;;;2.60;99.90;;;;;;5096370;27;20638;-74
2021/12/06 04:35:01;;;;;;;112.00;28.23;;;2.60;99.90;;;;;;5110945;27;20122;-74
2021/12/06 04:37:27;;;;;;;112.82;28.20;;;2.60;99.90;;;;;;5113434;27;20043;-73
2021/12/06 04:39:53;;;;;;;119.65;30.00;;;2.60;99.90;;;;;;5110126;27;20047;-73
2021/12/06 04:42:20;;;;;;;110.57;29.83;;;2.60;99.90;;;;;;5113535;27;20081;-74
2021/12/06 04:44:46;;;;;;;123.45;30.20;;;2.60;99.90;;;;;;5113329;27;20037;-73
2021/12/06 04:47:12;;;;;;;131.48;31.05;;;2.60;99.90;;;;;;5112843;27;20470;-74
2021/12/06 04:49:38;;;;;;;137.68;31.60;;;2.60;99.90;;;;;;5095599;27;20099;-74
2021/12/06 04:52:06;;;;;;;132.95;31.98;;;2.60;99.90;;;;;;5112923;27;20047;-74
2021/12/06 04:54:35;;;;;;;136.43;30.80;;;2.60;99.90;;;;;;5113014;27;20072;-74
2021/12/06 04:57:22;;;;;;;134.95;31.15;;;2.60;99.90;;;;;;5112678;27;20046;-74
2021/12/06 04:59:55;;;;;;;137.30;30.80;;;2.60;99.90;;;;;;5107549;27;20062;-74
2021/12/06 05:02:32;;;;;;;151.98;32.97;;;2.60;99.90;;;;;;5111692;27;20023;-74
2021/12/06 05:05:00;;;;;;;134.85;32.05;;;2.60;99.90;;;;;;5112887;27;20498;-75
2021/12/06 05:07:40;;;;;;;140.48;29.92;;;2.60;99.90;;;;;;5112857;27;20064;-74
2021/12/06 05:10:07;;;;;;;147.38;33.40;;;2.70;99.90;;;;;;5112331;27;20039;-75
2021/12/06 05:12:33;;;;;;;141.80;31.83;;;2.70;99.90;;;;;;5112900;27;20046;-74
2021/12/06 05:14:59;;;;;;;136.85;31.58;;;2.70;99.90;;;;;;5112665;27;20031;-74
2021/12/06 05:17:26;;;;;;;158.48;32.00;;;2.70;99.90;;;;;;5112637;27;20035;-75
2021/12/06 05:19:52;;;;;;;151.02;32.17;;;2.70;99.90;;;;;;5111015;27;20039;-74
2021/12/06 05:22:18;;;;;;;147.35;33.17;;;2.70;99.90;;;;;;5113054;27;20468;-74
2021/12/06 05:24:43;;;;;;;156.82;33.47;;;2.70;99.90;;;;;;5112249;27;20030;-74
2021/12/06 05:27:09;;;;;;;178.85;35.38;;;2.70;99.90;;;;;;5112461;27;20439;-74
2021/12/06 05:29:36;;;;;;;154.13;33.35;;;2.70;99.90;;;;;;5095644;27;20106;-74
2021/12/06 05:32:02;;;;;;;166.45;33.50;;;2.70;99.90;;;;;;5112536;27;20035;-74
2021/12/06 05:34:37;;;;;;;166.65;33.72;;;2.70;99.90;;;;;;5110900;27;20553;-75
2021/12/06 05:37:08;;;;;;;181.32;34.58;;;2.70;99.90;;;;;;5111962;27;20065;-74
2021/12/06 05:39:34;;;;;;;168.65;33.00;;;2.70;99.90;;;;;;5111878;27;20051;-74
2021/12/06 05:42:03;;;;;;;150.27;31.13;;;2.80;99.90;;;;;;5112261;27;20043;-74
2021/12/06 05:44:29;;;;;;;162.35;33.50;;;2.80;99.90;;;;;;5112460;27;20043;-74
2021/12/06 05:46:56;;;;;;;156.63;33.20;;;2.80;99.90;;;;;;5112234;27;20562;-74
2021/12/06 05:49:22;;;;;;;152.85;30.88;;;2.80;99.90;;;;;;5127378;27;20134;-74
2021/12/06 05:51:48;;;;;;;167.15;34.90;;;2.80;99.90;;;;;;5111383;27;20031;-73
2021/12/06 05:54:13;;;;;;;149.98;33.42;;;2.80;99.90;;;;;;5112399;27;20031;-73
2021/12/06 05:56:39;;;;;;;158.13;32.63;;;2.80;99.90;;;;;;5111681;27;20031;-74
2021/12/06 05:59:05;;;;;;;157.90;32.88;;;2.80;99.90;;;;;;5111579;27;20031;-74
2021/12/06 06:01:30;;;;;;;167.32;33.65;;;2.80;99.90;;;;;;5111890;27;20043;-74
2021/12/06 06:04:01;;;;;;;164.73;33.63;;;2.80;99.90;;;;;;5111695;27;20042;-74
2021/12/06 06:06:28;;;;;;;169.88;34.08;;;2.80;99.90;;;;;;5093967;27;20467;-73
2021/12/06 06:08:54;;;;;;;168.95;35.80;;;2.80;99.90;;;;;;5109352;27;20039;-74
2021/12/06 06:11:19;;;;;;;182.18;34.20;;;2.80;99.90;;;;;;5094735;27;20061;-74
2021/12/06 06:13:45;;;;;;;181.95;35.22;;;2.80;99.90;;;;;;5111485;28;20031;-73
2021/12/06 06:16:10;;;;;;;191.65;36.15;;;2.80;99.90;;;;;;5111892;28;20516;-74
2021/12/06 06:18:36;;;;;;;183.05;34.10;;;2.80;99.90;;;;;;5111696;28;20039;-74
2021/12/06 06:21:02;;;;;;;194.07;38.17;;;2.80;99.90;;;;;;5110870;28;20043;-74
2021/12/06 06:23:28;;;;;;;203.50;37.17;;;2.90;99.90;;;;;;5094757;28;20027;-74
2021/12/06 06:25:54;;;;;;;196.55;37.35;;;2.90;99.90;;;;;;5111851;28;20091;-74
2021/12/06 06:28:20;;;;;;;193.43;37.80;;;2.90;99.90;;;;;;5111259;28;20031;-74
2021/12/06 06:30:46;;;;;;;170.15;36.65;;;2.90;99.90;;;;;;5111097;28;20195;-73
2021/12/06 06:33:11;;;;;;;198.73;38.05;;;2.90;99.90;;;;;;5111729;28;20039;-74
2021/12/06 06:35:37;;;;;;;189.18;36.28;;;2.90;99.90;;;;;;5110714;28;20039;-73
2021/12/06 06:38:04;;;;;;;199.02;38.72;;;2.90;99.90;;;;;;5111214;28;20367;-73
2021/12/06 06:40:29;;;;;;;196.63;36.28;;;2.90;99.90;;;;;;5111171;28;20043;-73
2021/12/06 06:42:55;;;;;;;194.48;35.80;;;2.90;99.90;;;;;;5094694;28;20040;-74
2021/12/06 06:45:21;;;;;;;190.55;36.00;;;2.90;99.90;;;;;;5111506;28;20481;-74
2021/12/06 06:47:48;;;;;;;181.50;35.25;;;2.90;99.90;;;;;;5094008;28;20031;-74
2021/12/06 06:50:14;;;;;;;174.80;36.58;;;2.90;99.90;;;;;;5110682;28;20423;-74
2021/12/06 06:52:41;;;;;;;183.20;38.95;;;2.90;99.90;;;;;;5111012;28;20051;-73
2021/12/06 06:55:09;;;;;;;180.20;36.67;;;2.90;99.90;;;;;;5111174;28;20121;-73
2021/12/06 06:57:35;;;;;;;179.13;35.55;;;2.90;99.90;;;;;;5110934;28;20035;-74
2021/12/06 07:00:02;;;;;;;193.90;38.25;;;2.90;99.90;;;;;;5110892;28;20035;-73
2021/12/06 07:02:28;;;;;;;174.93;38.70;;;2.90;99.90;;;;;;5111053;28;20038;-74
2021/12/06 07:04:53;;;;;;;189.80;37.53;;;2.90;99.90;;;;;;5112023;28;20096;-73
2021/12/06 07:07:19;;;;;;;165.73;36.10;;;2.90;99.90;;;;;;5111740;28;20035;-74
2021/12/06 07:09:44;;;;;;;183.48;36.78;;;2.90;99.90;;;;;;5101217;28;20162;-73
2021/12/06 07:12:15;;;;;;;209.93;36.13;;;2.90;99.90;;;;;;5098101;28;20043;-73
2021/12/06 07:14:42;;;;;;;165.48;35.65;;;2.90;99.90;;;;;;5112078;28;20091;-72
2021/12/06 07:17:08;;;;;;;171.38;34.15;;;2.80;99.90;;;;;;5114761;27;20047;-73
2021/12/06 07:19:33;;;;;;;185.00;35.47;;;2.90;99.90;;;;;;5115923;27;20043;-73
2021/12/06 07:21:59;;;;;;;151.30;34.55;;;2.90;99.90;;;;;;5122740;27;20039;-73
2021/12/06 07:24:26;;;;;;;147.27;32.30;;;2.90;99.90;;;;;;5123800;27;20099;-74
2021/12/06 07:26:51;;;;;;;159.95;34.95;;;2.90;99.90;;;;;;5116044;27;20027;-73
2021/12/06 07:29:17;;;;;;;160.98;35.05;;;2.90;99.90;;;;;;5114790;27;20039;-73
2021/12/06 07:31:42;;;;;;;153.90;35.13;;;2.90;99.90;;;;;;5115194;27;20042;-73
2021/12/06 07:34:08;;;;;;;140.57;32.58;;;2.80;99.90;;;;;;5118415;27;20050;-73
2021/12/06 07:36:33;;;;;;;157.07;33.83;;;2.90;99.90;;;;;;5133087;27;20039;-73
2021/12/06 07:38:59;;;;;;;142.10;32.33;;;2.80;99.90;;;;;;5115960;27;20035;-73
2021/12/06 07:41:28;;;;;;;157.35;34.08;;;2.80;99.90;;;;;;5115271;27;20121;-73
2021/12/06 07:43:58;;;;;;;162.50;35.53;;;2.80;99.90;;;;;;5115442;27;20065;-72
2021/12/06 07:46:24;;;;;;;161.85;32.78;;;2.80;99.90;;;;;;5113816;27;20042;-73
2021/12/06 07:48:52;;;;;;;141.50;33.22;;;2.80;99.90;;;;;;5115268;27;20080;-74
2021/12/06 07:51:25;;;;;;;155.45;35.05;;;2.80;99.90;;;;;;5114345;27;20043;-74
2021/12/06 07:53:52;;;;;;;154.45;34.80;;;2.80;99.90;;;;;;5125778;27;20130;-72
2021/12/06 07:56:18;;;;;;;144.55;33.55;;;2.80;99.90;;;;;;5114697;27;20039;-73
2021/12/06 07:58:44;;;;;;;151.63;31.20;;;2.80;99.90;;;;;;5115313;27;20043;-73
2021/12/06 08:01:10;;;;;;;155.45;32.20;;;2.80;99.90;;;;;;5114914;27;20487;-74
2021/12/06 08:03:38;;;;;;;144.93;33.25;;;2.80;99.90;;;;;;5116355;27;20027;-73
2021/12/06 08:06:04;;;;;;;153.60;33.83;;;2.80;99.90;;;;;;5117303;27;20035;-73
2021/12/06 08:08:31;;;;;;;151.07;33.35;;;2.80;99.90;;;;;;5099517;27;20095;-74
2021/12/06 08:11:09;;;;;;;155.27;33.65;;;2.80;99.90;;;;;;5114474;27;20100;-74
2021/12/06 08:13:36;;;;;;;164.65;34.60;;;2.80;99.90;;;;;;5115256;27;20086;-74
2021/12/06 08:16:08;;;;;;;150.77;34.10;;;2.70;99.90;;;;;;5127832;27;20047;-73
2021/12/06 08:18:33;;;;;;;160.10;34.88;;;2.70;99.90;;;;;;5099473;27;20073;-74
2021/12/06 08:21:00;;;;;;;150.75;34.13;;;2.70;99.90;;;;;;5109777;28;20040;-74
2021/12/06 08:23:27;;;;;;;161.13;35.75;;;2.80;99.90;;;;;;5118825;27;20031;-73
2021/12/06 08:25:53;;;;;;;158.02;35.72;;;2.80;99.90;;;;;;5114400;27;20561;-73
2021/12/06 08:28:19;;;;;;;183.50;39.38;;;2.70;99.90;;;;;;5121205;27;20069;-73
2021/12/06 08:30:46;;;;;;;172.98;38.20;;;2.70;99.90;;;;;;5131208;27;20138;-71
2021/12/06 08:33:13;;;;;;;167.13;38.95;;;2.80;99.90;;;;;;5131309;27;20054;-72
2021/12/06 08:35:45;;;;;;;185.10;39.53;;;2.80;99.90;;;;;;5111450;27;20054;-71
2021/12/06 08:38:13;;;;;;;183.82;39.95;;;2.80;99.90;;;;;;5123943;27;20066;-72
2021/12/06 08:40:41;;;;;;;197.60;40.25;;;2.70;99.90;;;;;;5113313;27;20047;-73
2021/12/06 08:43:07;;;;;;;175.57;38.20;;;2.70;99.90;;;;;;5114358;27;20054;-73
2021/12/06 08:45:33;;;;;;;186.52;40.40;;;2.70;99.90;;;;;;5098420;27;20039;-73
2021/12/06 08:48:00;;;;;;;197.43;41.58;;;2.80;99.90;;;;;;5114147;27;20047;-73
2021/12/06 08:50:27;;;;;;;186.25;38.90;;;2.80;99.90;;;;;;5096546;27;20046;-73
2021/12/06 08:52:53;;;;;;;183.50;38.05;;;2.80;99.90;;;;;;5122782;27;20390;-73
2021/12/06 08:55:20;;;;;;;162.23;36.65;;;2.80;99.90;;;;;;5114093;27;20148;-72
2021/12/06 08:57:45;;;;;;;147.52;34.72;;;2.80;99.90;;;;;;5117908;27;20034;-70
2021/12/06 09:00:17;;;;;;;149.70;32.78;;;2.80;99.90;;;;;;5119323;27;20042;-69
2021/12/06 09:02:43;;;;;;;134.57;31.08;;;2.80;99.90;;;;;;5114230;27;20035;-72
2021/12/06 09:05:10;;;;;;;126.53;29.63;;;2.90;99.90;;;;;;5119381;27;20508;-72
2021/12/06 09:07:36;;;;;;;134.85;31.10;;;2.90;99.90;;;;;;5118271;27;20160;-73
2021/12/06 09:10:04;;;;;;;142.20;31.67;;;2.90;99.90;;;;;;5123622;27;20999;-73
2021/12/06 09:12:30;;;;;;;134.38;31.73;;;2.90;99.90;;;;;;5114262;27;20366;-72
2021/12/06 09:15:00;;;;;;;123.65;29.52;;;2.90;99.90;;;;;;5121895;27;20509;-72
2021/12/06 09:17:26;;;;;;;113.30;28.67;;;2.90;99.90;;;;;;5116605;27;20035;-72
2021/12/06 09:19:52;;;;;;;111.95;27.35;;;3.00;99.90;;;;;;5121943;27;20500;-72
2021/12/06 09:22:18;;;;;;;114.28;29.67;;;3.00;99.90;;;;;;5113547;27;20039;-71
2021/12/06 09:24:45;;;;;;;105.90;27.60;;;3.00;99.90;;;;;;5114857;27;20122;-70
2021/12/06 09:27:12;;;;;;;99.70;24.98;;;3.10;99.90;;;;;;5112892;27;20035;-71
2021/12/06 09:29:38;;;;;;;93.63;25.83;;;3.10;99.90;;;;;;5113212;27;20131;-71
2021/12/06 09:32:07;;;;;;;101.50;26.23;;;3.10;99.90;;;;;;5113420;27;20076;-72
2021/12/06 09:34:34;;;;;;;99.97;25.10;;;3.10;99.90;;;;;;5092692;28;20100;-72
2021/12/06 09:37:00;;;;;;;97.07;24.75;;;3.10;99.90;;;;;;5109330;28;20097;-72
2021/12/06 09:39:26;;;;;;;89.78;25.30;;;3.10;99.90;;;;;;5109434;28;20043;-72
2021/12/06 09:41:53;;;;;;;93.95;25.10;;;3.10;99.90;;;;;;5108157;27;20367;-71
2021/12/06 09:44:18;;;;;;;112.38;26.73;;;3.10;99.90;;;;;;5113368;27;20126;-72
2021/12/06 09:46:45;;;;;;;109.15;26.80;;;3.10;99.90;;;;;;5110536;27;20146;-72
2021/12/06 09:49:15;;;;;;;96.50;26.15;;;3.10;99.90;;;;;;5098140;27;20043;-72
2021/12/06 09:51:44;;;;;;;105.75;27.55;;;3.10;99.90;;;;;;5112997;27;20451;-72
2021/12/06 09:54:11;;;;;;;112.90;27.70;;;3.10;99.90;;;;;;5113151;27;20497;-71
2021/12/06 09:56:43;;;;;;;109.38;27.73;;;3.10;99.90;;;;;;5112481;27;20499;-71
2021/12/06 09:59:12;;;;;;;111.32;26.38;;;3.10;99.90;;;;;;5110339;27;20039;-72
2021/12/06 10:01:42;;;;;;;106.05;25.50;;;3.10;99.90;;;;;;5111134;27;20566;-72
2021/12/06 10:04:11;;;;;;;104.82;26.45;;;3.10;99.90;;;;;;5111131;27;20563;-71
2021/12/06 10:06:38;;;;;;;103.43;26.90;;;3.10;99.90;;;;;;5111327;27;20544;-71
2021/12/06 10:09:06;;;;;;;105.80;26.75;;;3.10;99.90;;;;;;5110571;27;20039;-72
2021/12/06 10:11:32;;;;;;;105.18;28.15;;;3.10;99.90;;;;;;5111693;27;20080;-72
2021/12/06 10:13:58;;;;;;;108.78;27.38;;;3.10;99.90;;;;;;5110875;27;20445;-71
2021/12/06 10:16:24;;;;;;;112.63;26.42;;;3.20;99.90;;;;;;5112127;27;20048;-72
2021/12/06 10:18:50;;;;;;;119.25;28.88;;;3.20;99.90;;;;;;5111441;28;20035;-70
2021/12/06 10:21:16;;;;;;;118.85;28.42;;;3.20;99.90;;;;;;5110003;28;20076;-71
2021/12/06 10:23:43;;;;;;;124.15;29.17;;;3.20;99.90;;;;;;5111042;28;20062;-71
2021/12/06 10:26:12;;;;;;;126.20;27.52;;;3.20;99.90;;;;;;5110410;28;20047;-72
2021/12/06 10:28:41;;;;;;;108.28;27.13;;;3.20;99.90;;;;;;5110672;28;20362;-72
2021/12/06 10:31:08;;;;;;;119.70;27.50;;;3.20;99.90;;;;;;5094502;28;20039;-72
2021/12/06 10:33:55;;;;;;;113.93;29.20;;;3.30;99.90;;;;;;5093750;28;20032;-72
2021/12/06 10:36:20;;;;;;;117.53;28.45;;;3.30;99.90;;;;;;5109925;28;20172;-72
2021/12/06 10:38:53;;;;;;;125.10;29.15;;;3.30;99.90;;;;;;5110501;28;20596;-72
2021/12/06 10:41:25;;;;;;;124.97;27.60;;;3.30;99.90;;;;;;5108293;28;20035;-72
2021/12/06 10:43:58;;;;;;;123.70;29.33;;;3.30;99.90;;;;;;5112064;28;20063;-72
2021/12/06 10:46:25;;;;;;;133.55;29.77;;;3.30;99.90;;;;;;5112180;28;20081;-71
2021/12/06 10:48:55;;;;;;;145.75;29.88;;;3.30;99.90;;;;;;5110999;28;20095;-71
2021/12/06 10:51:23;;;;;;;148.32;31.98;;;3.40;99.90;;;;;;5112270;27;20080;-71
2021/12/06 10:54:05;;;;;;;144.77;31.23;;;3.40;99.90;;;;;;5115517;27;20050;-72
2021/12/06 10:56:41;;;;;;;137.82;30.25;;;3.40;99.90;;;;;;5114526;27;20035;-72
2021/12/06 10:59:18;;;;;;;138.30;29.73;;;3.40;99.90;;;;;;5113310;27;20035;-72
2021/12/06 11:01:45;;;;;;;137.55;29.30;;;3.40;99.90;;;;;;5113855;27;20055;-71
2021/12/06 11:04:13;;;;;;;124.57;27.70;;;3.40;99.90;;;;;;5115614;27;20035;-71
2021/12/06 11:06:44;;;;;;;119.75;26.83;;;3.40;99.90;;;;;;5114596;27;20076;-72
2021/12/06 11:09:13;;;;;;;122.15;28.23;;;3.40;99.90;;;;;;5114931;27;20039;-72
2021/12/06 11:11:41;;;;;;;96.40;24.88;;;3.40;99.90;;;;;;5117008;27;20051;-71
2021/12/06 11:14:15;;;;;;;106.05;25.88;;;3.40;99.90;;;;;;5099645;27;20073;-71
2021/12/06 11:16:46;;;;;;;100.13;25.10;;;3.40;99.90;;;;;;5116107;27;20047;-70
2021/12/06 11:19:18;;;;;;;105.88;25.13;;;3.40;99.90;;;;;;5116015;27;20475;-70
2021/12/06 11:21:50;;;;;;;91.97;24.77;;;3.40;99.90;;;;;;5116475;27;20095;-70
2021/12/06 11:24:22;;;;;;;;;;;3.40;99.90;;;;;;5117124;27;20099;-70
2021/12/06 11:27:06;;;;;;;112.50;27.55;;;3.40;99.90;;;;;;5115931;27;20392;-70
2021/12/06 11:29:41;;;;;;;130.85;31.13;;;3.50;99.90;;;;;;5098753;27;20035;-70
2021/12/06 11:32:15;;;;;;;135.23;31.77;;;3.40;99.90;;;;;;5116333;27;20051;-71
2021/12/06 11:34:49;;;;;;;154.60;34.88;;;3.40;99.90;;;;;;5105735;28;20065;-70
2021/12/06 11:37:27;;;;;;;156.63;34.70;;;3.40;99.90;;;;;;5095518;28;20075;-71
2021/12/06 11:40:10;;;;;;;140.38;33.55;;;3.40;99.90;;;;;;5094838;28;20071;-71
2021/12/06 11:43:00;;;;;;;143.07;33.78;;;3.50;99.90;;;;;;5095683;28;20401;-71
2021/12/06 11:45:52;;;;;;;143.27;31.58;;;3.50;99.90;;;;;;5095832;28;20054;-71
2021/12/06 11:48:28;;;;;;;145.13;33.00;;;3.60;99.90;;;;;;5078259;28;20244;-71
2021/12/06 11:51:09;;;;;;;137.25;31.95;;;3.60;99.90;;;;;;5085754;27;20123;-72
2021/12/06 11:53:46;;;;;;;139.13;34.10;;;3.60;99.90;;;;;;5114961;27;20068;-71
2021/12/06 11:56:26;;;;;;;147.30;32.60;;;3.60;99.90;;;;;;5115273;27;20046;-71
2021/12/06 11:58:57;;;;;;;145.60;33.33;;;3.60;99.90;;;;;;5115270;27;20039;-72
2021/12/06 12:01:34;;;;;;;148.05;34.58;;;3.60;99.90;;;;;;5127715;27;20478;-70
2021/12/06 12:04:06;;;;;;;167.57;36.15;;;3.60;99.90;;;;;;5109264;27;20088;-71
2021/12/06 12:06:38;;;;;;;169.77;36.05;;;3.60;99.90;;;;;;5115126;27;20493;-70
2021/12/06 12:09:14;;;;;;;168.40;36.50;;;3.60;99.90;;;;;;5114159;27;20514;-71
2021/12/06 12:11:56;;;;;;;162.95;36.42;;;3.60;99.90;;;;;;5115343;27;20396;-71
2021/12/06 12:14:34;;;;;;;167.00;38.20;;;3.60;99.90;;;;;;5097983;27;20035;-72
2021/12/06 12:17:03;;;;;;;178.77;39.10;;;3.60;99.90;;;;;;5114520;27;20039;-69
2021/12/06 12:19:29;;;;;;;168.85;37.65;;;3.70;99.90;;;;;;5114038;27;20051;-72
2021/12/06 12:21:55;;;;;;;176.02;38.25;;;3.60;99.90;;;;;;5114505;27;20097;-72
2021/12/06 12:24:21;;;;;;;153.35;37.13;;;3.70;99.90;;;;;;5114705;27;20073;-71
2021/12/06 12:26:56;;;;;;;162.30;37.42;;;3.70;99.90;;;;;;5114117;27;20096;-71
2021/12/06 12:29:26;;;;;;;166.25;36.45;;;3.70;99.90;;;;;;5110133;27;20434;-71
2021/12/06 12:32:12;;;;;;;175.88;37.42;;;3.70;99.90;;;;;;5114646;27;20031;-71
2021/12/06 12:34:42;;;;;;;160.05;37.25;;;3.80;99.90;;;;;;5111173;28;20579;-72
2021/12/06 12:37:10;;;;;;;146.98;35.30;;;3.80;99.90;;;;;;5112773;27;20043;-71
2021/12/06 12:39:36;;;;;;;160.48;37.42;;;3.80;99.90;;;;;;5114472;27;20035;-72
2021/12/06 12:42:05;;;;;;;158.02;37.70;;;3.80;99.90;;;;;;5113866;27;20043;-72
2021/12/06 12:44:49;;;;;;;147.95;36.28;;;3.90;99.90;;;;;;5114013;27;20043;-71